createdAt,value
2019-02-16T00:01:55.699Z,99.90
2019-02-16T00:04:09.347Z,99.90
2019-02-16T00:06:25.605Z,99.90
2019-02-16T00:08:39.170Z,99.90
2019-02-16T00:11:00.401Z,99.90
2019-02-16T00:13:11.788Z,99.90
2019-02-16T00:15:22.187Z,99.90
2019-02-16T00:17:26.470Z,99.90
2019-02-16T00:19:45.895Z,99.90
2019-02-16T00:22:01.139Z,99.90
2019-02-16T00:24:16.983Z,99.90
2019-02-16T00:26:34.385Z,99.90
2019-02-16T00:28:49.307Z,99.90
2019-02-16T00:30:55.182Z,99.90
2019-02-16T00:33:08.803Z,99.90
2019-02-16T00:35:21.073Z,99.90
2019-02-16T00:37:24.982Z,99.90
2019-02-16T00:39:36.789Z,99.90
2019-02-16T00:41:48.223Z,99.90
2019-02-16T00:43:55.987Z,99.90
2019-02-16T00:46:06.093Z,99.90
2019-02-16T00:48:25.485Z,99.90
2019-02-16T00:50:36.189Z,99.90
2019-02-16T00:52:47.988Z,99.90
2019-02-16T00:55:09.465Z,99.90
2019-02-16T00:57:27.974Z,99.90
2019-02-16T00:59:42.044Z,99.90
2019-02-16T01:02:02.069Z,99.90
2019-02-16T01:04:16.711Z,99.90
2019-02-16T01:06:28.311Z,99.90
2019-02-16T01:08:43.244Z,99.90
2019-02-16T01:11:01.786Z,99.90
2019-02-16T01:13:11.866Z,99.90
2019-02-16T01:15:22.654Z,99.90
2019-02-16T01:17:35.993Z,99.90
2019-02-16T01:19:51.959Z,99.90
2019-02-16T01:21:58.760Z,99.90
2019-02-16T01:24:07.634Z,99.90
2019-02-16T01:26:16.593Z,99.90
2019-02-16T01:28:31.961Z,99.90
2019-02-16T01:30:39.120Z,99.90
2019-02-16T01:32:51.188Z,99.90
2019-02-16T01:35:00.523Z,99.90
2019-02-16T01:37:14.060Z,99.90
2019-02-16T01:39:31.812Z,99.90
2019-02-16T01:41:41.938Z,99.90
2019-02-16T01:43:52.289Z,99.90
2019-02-16T01:46:00.047Z,99.90
2019-02-16T01:48:04.246Z,99.90
2019-02-16T01:50:09.418Z,99.90
2019-02-16T01:52:14.965Z,99.90
2019-02-16T01:54:18.899Z,99.90
2019-02-16T01:56:32.564Z,99.90
2019-02-16T01:58:36.409Z,99.90
2019-02-16T02:00:40.276Z,99.90
2019-02-16T02:02:44.144Z,99.90
2019-02-16T02:04:49.163Z,99.90
2019-02-16T02:06:52.994Z,99.90
2019-02-16T02:08:56.810Z,99.90
2019-02-16T02:11:00.875Z,99.90
2019-02-16T02:13:04.953Z,99.90
2019-02-16T02:15:09.595Z,99.90
2019-02-16T02:17:13.391Z,99.90
2019-02-16T02:19:17.207Z,99.90
2019-02-16T02:21:21.015Z,99.90
2019-02-16T02:23:24.823Z,99.90
2019-02-16T02:25:28.659Z,99.90
2019-02-16T02:27:32.465Z,99.90
2019-02-16T02:29:36.351Z,99.90
2019-02-16T02:31:40.166Z,99.90
2019-02-16T02:33:44.147Z,99.90
2019-02-16T02:35:48.068Z,99.90
2019-02-16T02:37:52.012Z,99.90
2019-02-16T02:39:55.878Z,99.90
2019-02-16T02:41:59.746Z,99.90
2019-02-16T02:44:03.638Z,99.90
2019-02-16T02:46:07.447Z,99.90
2019-02-16T02:48:11.231Z,99.90
2019-02-16T02:50:16.148Z,99.90
2019-02-16T02:52:20.002Z,99.90
2019-02-16T02:54:23.895Z,99.90
2019-02-16T02:56:27.835Z,99.90
2019-02-16T02:58:32.064Z,99.90
2019-02-16T03:00:40.703Z,99.90
2019-02-16T03:02:51.520Z,99.90
2019-02-16T03:05:00.665Z,99.90
2019-02-16T03:07:04.672Z,99.90
2019-02-16T03:09:12.750Z,99.90
2019-02-16T03:11:19.265Z,99.90
2019-02-16T03:13:59.065Z,99.90
2019-02-16T03:19:50.148Z,99.90
2019-02-16T03:23:05.322Z,99.90
2019-02-16T03:25:45.985Z,99.90
2019-02-16T03:29:26.168Z,99.90
2019-02-16T03:32:24.521Z,99.90
2019-02-16T03:38:48.038Z,99.90
2019-02-16T03:45:20.962Z,99.90
2019-02-16T03:48:11.017Z,99.90
2019-02-16T03:54:31.465Z,99.90
2019-02-16T03:57:44.058Z,99.90
2019-02-16T04:04:18.436Z,99.90
2019-02-16T04:08:42.193Z,99.90
2019-02-16T04:10:54.282Z,99.90
2019-02-16T04:17:36.982Z,99.90
2019-02-16T04:21:09.887Z,99.90
2019-02-16T04:24:09.334Z,99.90
2019-02-16T04:30:50.321Z,99.90
2019-02-16T04:33:56.562Z,99.90
2019-02-16T04:43:12.584Z,99.90
2019-02-16T04:49:39.129Z,99.90
2019-02-16T04:59:14.981Z,99.90
2019-02-16T05:02:32.575Z,99.90
2019-02-16T05:06:14.696Z,99.90
2019-02-16T05:08:51.741Z,99.90
2019-02-16T05:13:34.647Z,99.90
2019-02-16T05:14:38.190Z,99.90
2019-02-16T05:17:52.490Z,99.90
2019-02-16T05:21:23.949Z,99.90
2019-02-16T05:28:25.525Z,99.90
2019-02-16T05:34:30.118Z,99.90
2019-02-16T05:36:49.284Z,99.90
2019-02-16T05:39:16.220Z,99.90
2019-02-16T05:41:25.049Z,99.90
2019-02-16T05:45:48.589Z,99.90
2019-02-16T05:48:06.558Z,99.90
2019-02-16T05:52:00.231Z,99.90
2019-02-16T05:52:43.018Z,99.90
2019-02-16T05:55:18.040Z,99.90
2019-02-16T05:57:48.591Z,99.90
2019-02-16T06:03:21.132Z,99.90
2019-02-16T06:06:18.830Z,99.90
2019-02-16T06:18:00.892Z,99.90
2019-02-16T06:31:15.200Z,99.90
2019-02-16T06:36:56.566Z,99.90
2019-02-16T06:40:01.031Z,99.90
2019-02-16T06:43:19.856Z,99.90
2019-02-16T07:28:42.327Z,99.90
2019-02-16T07:30:57.325Z,99.90
2019-02-16T07:38:51.079Z,99.90
2019-02-16T07:41:25.097Z,99.90
2019-02-16T07:44:23.605Z,99.90
2019-02-16T07:46:57.913Z,99.90
2019-02-16T07:49:17.201Z,99.90
2019-02-16T07:51:49.162Z,99.90
2019-02-16T07:57:26.519Z,99.90
2019-02-16T08:00:20.367Z,99.90
2019-02-16T08:03:08.446Z,99.90
2019-02-16T08:05:37.294Z,99.90
2019-02-16T08:08:13.575Z,99.90
2019-02-16T08:11:39.520Z,99.90
2019-02-16T08:16:33.116Z,99.90
2019-02-16T08:19:30.312Z,99.90
2019-02-16T08:22:31.786Z,99.90
2019-02-16T08:25:13.738Z,99.90
2019-02-16T08:28:24.488Z,99.90
2019-02-16T08:30:50.555Z,99.90
2019-02-16T08:33:21.743Z,99.90
2019-02-16T08:35:56.254Z,99.90
2019-02-16T08:38:42.820Z,99.90
2019-02-16T08:41:27.941Z,99.90
2019-02-16T08:43:57.820Z,99.90
2019-02-16T08:47:25.547Z,99.90
2019-02-16T08:49:52.471Z,99.90
2019-02-16T08:52:56.717Z,99.90
2019-02-16T09:01:32.359Z,99.90
2019-02-16T09:04:34.763Z,99.90
2019-02-16T09:07:31.847Z,99.90
2019-02-16T09:10:29.074Z,99.90
2019-02-16T09:13:22.569Z,99.90
2019-02-16T09:15:53.590Z,99.90
2019-02-16T09:18:40.441Z,99.90
2019-02-16T09:21:42.893Z,99.90
2019-02-16T09:24:23.196Z,99.90
2019-02-16T09:27:18.796Z,99.90
2019-02-16T09:30:31.034Z,99.90
2019-02-16T09:35:44.059Z,99.90
2019-02-16T09:38:37.633Z,99.90
2019-02-16T09:41:48.532Z,99.90
2019-02-16T09:47:40.780Z,99.90
2019-02-16T09:47:52.956Z,99.90
2019-02-16T09:50:54.320Z,99.90
2019-02-16T09:53:55.646Z,99.90
2019-02-16T09:57:00.620Z,99.90
2019-02-16T10:09:24.369Z,99.90
2019-02-16T10:16:14.956Z,98.80
2019-02-16T11:58:04.782Z,85.00
2019-02-16T12:01:08.188Z,86.40
2019-02-16T12:03:23.662Z,86.50
2019-02-16T12:10:19.376Z,85.00
2019-02-16T12:16:52.471Z,81.80
2019-02-16T12:23:10.994Z,80.10
2019-02-16T12:26:10.545Z,77.30
2019-02-16T12:29:22.942Z,76.80
2019-02-16T12:32:27.494Z,75.90
2019-02-16T12:35:41.851Z,75.50
2019-02-16T12:38:52.903Z,73.40
2019-02-16T12:41:53.746Z,71.60
2019-02-16T12:47:58.195Z,71.50
2019-02-16T12:51:59.086Z,70.70
2019-02-16T12:53:42.567Z,70.30
2019-02-16T12:59:17.465Z,69.90
2019-02-16T13:05:48.763Z,66.80
2019-02-16T13:10:57.511Z,65.00
2019-02-16T13:17:53.891Z,63.20
2019-02-16T13:30:14.058Z,59.60
2019-02-16T13:37:09.880Z,57.60
2019-02-16T13:40:17.408Z,57.30
2019-02-16T13:46:19.161Z,55.30
2019-02-16T13:49:00.611Z,55.20
2019-02-16T14:08:40.722Z,55.10
2019-02-16T14:18:24.743Z,54.20
2019-02-16T14:46:21.684Z,48.60
2019-02-16T16:13:18.655Z,53.90
2019-02-16T16:35:30.797Z,58.70
2019-02-16T16:48:07.224Z,62.50
2019-02-16T17:11:37.246Z,75.00
2019-02-16T17:39:18.535Z,88.60
2019-02-16T17:45:50.934Z,90.90
2019-02-16T18:12:23.234Z,99.90
2019-02-16T18:58:25.635Z,99.90
2019-02-16T19:08:59.904Z,99.90
2019-02-16T19:12:44.995Z,99.90
2019-02-16T19:15:18.629Z,99.90
2019-02-16T19:19:17.625Z,99.90
2019-02-16T19:21:31.432Z,99.90
2019-02-16T19:28:09.067Z,99.90
2019-02-16T19:34:30.092Z,99.90
2019-02-16T19:40:36.116Z,99.90
2019-02-16T19:50:26.999Z,99.90
2019-02-16T19:56:24.315Z,99.90
2019-02-16T19:59:47.911Z,99.90
2019-02-16T20:02:39.559Z,99.90
2019-02-16T20:10:05.967Z,99.90
2019-02-16T20:12:05.932Z,99.90
2019-02-16T20:15:04.131Z,99.90
2019-02-16T20:35:43.998Z,99.90
2019-02-16T20:41:20.604Z,99.90
2019-02-16T20:44:41.537Z,99.90
2019-02-16T20:59:47.237Z,99.90
2019-02-16T21:02:09.136Z,99.90
2019-02-16T21:04:44.533Z,99.90
2019-02-16T21:07:26.479Z,99.90
2019-02-16T21:10:03.780Z,99.90
2019-02-16T21:12:24.098Z,99.90
2019-02-16T21:14:47.396Z,99.90
2019-02-16T21:17:40.000Z,99.90
2019-02-16T21:20:06.867Z,99.90
2019-02-16T21:22:44.585Z,99.90
2019-02-16T21:25:22.181Z,99.90
2019-02-16T21:27:57.821Z,99.90
2019-02-16T21:30:25.196Z,99.90
2019-02-16T21:33:18.442Z,99.90
2019-02-16T21:36:10.400Z,99.90
2019-02-16T21:38:41.674Z,99.90
2019-02-16T21:41:29.189Z,99.90
2019-02-16T21:47:06.537Z,99.90
2019-02-16T21:49:53.897Z,99.90
2019-02-16T21:52:29.765Z,99.90
2019-02-16T21:54:59.201Z,99.90
2019-02-16T21:57:35.282Z,99.90
2019-02-16T22:00:06.315Z,99.90
2019-02-16T22:02:36.010Z,99.90
2019-02-16T22:04:58.143Z,99.90
2019-02-16T22:07:40.302Z,99.90
2019-02-16T22:10:00.592Z,99.90
2019-02-16T22:12:23.688Z,99.90
2019-02-16T22:14:31.252Z,99.90
2019-02-16T22:16:40.092Z,99.90
2019-02-16T22:18:54.990Z,99.90
2019-02-16T22:23:14.912Z,99.90
2019-02-16T22:25:30.630Z,99.90
2019-02-16T22:27:37.937Z,99.90
2019-02-16T22:29:42.238Z,99.90
2019-02-16T22:32:03.628Z,99.90
2019-02-16T22:34:11.910Z,99.90
2019-02-16T22:38:44.032Z,99.90
2019-02-16T22:41:00.568Z,99.90
2019-02-16T22:43:14.094Z,99.90
2019-02-16T22:45:33.280Z,99.90
2019-02-16T22:47:52.752Z,99.90
2019-02-16T22:50:10.971Z,99.90
2019-02-16T22:52:21.682Z,99.90
2019-02-16T22:54:39.573Z,99.90
2019-02-16T22:57:10.601Z,99.90
2019-02-16T22:59:28.209Z,99.90
2019-02-16T23:01:39.395Z,99.90
2019-02-16T23:03:59.777Z,99.90
2019-02-16T23:06:08.964Z,99.90
2019-02-16T23:08:26.423Z,99.90
2019-02-16T23:10:36.428Z,99.90
2019-02-16T23:12:52.837Z,99.90
2019-02-16T23:15:08.238Z,99.90
2019-02-16T23:17:39.274Z,99.90
2019-02-16T23:19:56.718Z,99.90
2019-02-16T23:22:10.047Z,99.90
2019-02-16T23:24:32.509Z,99.90
2019-02-16T23:26:48.168Z,99.90
2019-02-16T23:28:56.533Z,99.90
2019-02-16T23:31:11.058Z,99.90
2019-02-16T23:33:47.257Z,99.90
2019-02-16T23:35:56.051Z,99.90
2019-02-16T23:38:06.948Z,99.90
2019-02-16T23:40:17.500Z,99.90
2019-02-16T23:42:38.365Z,99.90
2019-02-16T23:44:56.879Z,99.90
2019-02-16T23:47:12.166Z,99.90
2019-02-16T23:49:27.840Z,99.90
2019-02-16T23:51:40.274Z,99.90
2019-02-16T23:53:54.920Z,99.90
2019-02-16T23:56:05.252Z,99.90
2019-02-16T23:58:35.684Z,99.90
